Sparta, MI (49345)

12:01 AM EDT on October 21, 2017 (GMT -0400)
MMISPO | | Change Station

Elev 875 ft 43.12 °N, 85.76 °W | Updated 165 days ago

Partly Cloudy
Partly Cloudy
44.0 °F
Feels Like 41 °F
N
6.0
Wind Variable Wind from NNW

Today
High -- | Low -- °F
--% Chance of Precip.
Yesterday
High -- | Low -- °F
Precip. -- in
Pressure 30.09 in
Visibility 10.0 miles
Clouds Scattered Clouds 25000 ft
Windchill 41 °F
Dew Point 24 °F
Humidity 44%
Rainfall 0.00 in
Snow Depth Not available.
8:04 AM 6:49 PM
New Moon, 2% visible
METAR KGRR 210353Z 18006KT 10SM SCT250 14/11 A3010 RMK AO2 SLP190 LAST T01440106
Pressure 30.09 in
Visibility 10.0 miles
Clouds Scattered Clouds 25000 ft
Windchill 41 °F
Dew Point 24 °F
Humidity 44%
Rainfall 0.00 in
Snow Depth Not available.
8:04 AM 6:49 PM
New Moon, 2% visible
METAR KGRR 210353Z 18006KT 10SM SCT250 14/11 A3010 RMK AO2 SLP190 LAST T01440106

Get Severe Weather Alerts

Thanks for signing up!

Be on the lookout for a verification email in your inbox.

You'll start receiving the daily forecast at 6 AM.

×

10-Day Weather Forecast

Almanac

Astronomy

Oct. 21, 2017 Rise Set
Actual Time
Civil Twilight
Nautical Twilight
Astronomical Twilight
Moon
Length of Visible Light
Length of Day
Tomorrow will be .
, % of the Moon is Illuminated

Today's Extremes

State Highs State Lows

Community

WunderPhotos

Category 6

Welcome to Category 6. This is the collective home for Weather Underground's featured writeups by Dr. Jeff Masters (right), Bob Henson (left), Chris Burt, and other regular contributors.

Nearby

Air Quality

  Air Quality AQ Index Pollutant
Not available.

Snow Depth

Station Depth Elevation

Earthquake Activity

City Distance Mag. Time & Date
Minimum magnitude displayed is 2.5.

Coastal Water Temperatures

Place Temperature

Stations

Nearby Weather Stations

Station Location Temp. Windchill Dew Point Humidity Wind Precip. Elev Updated Type
                   

Watches & Warnings

There are currently no watches in effect.